Hlavní strana
METAR-TAF:

METAR-TAF

Letiště :

Pula, Chorvatsko

zeměpisná šířka: 44-54N, zeměpisná délka: 013-55E, výška: 63 m

Aktuální stav počasí

Zpráva byla vytvořena před 21 minutami, v 15:30 UTC
Severovýchodní vítr 6 kt
Teplota 7°C
Vlhkost vzduchu 57%
Tlak 1026 hPa
Viditelnost 10 km a více
Žádná oblačnost pod 1500 m, nevyskytují se cumulonimby.

METAR: LDPL 181530Z 04006KT CAVOK 07/M01 Q1026 NOSIG

Čas: 16:51 (15:51 UTC)

Předpověď počasí

Zpráva byla vytvořena před 4 hodinami a 26 minutami, v 11:25 UTC
Předpověď platná od 18 v 12 UTC do 19 v 12 UTC
Severoseverovýchodní vítr 7 kt
Viditelnost 10 km a více
Žádná oblačnost pod 1500 m, nevyskytují se cumulonimby.
Pravděpodobnost 30% :
Dočasný
od 18 v 12 UTC do 18 v 16 UTC
Severovýchodní vítr 10 kt

TAF: LDPL 181125Z 1812/1912 03007KT CAVOK TX10/1812Z TNM01/1905Z PROB30 TEMPO 1812/1816 05010KT

Stav a předpovědi počasí z více než 4 000 letišť (zprávy METAR a TAF).

Červené a žluté tečky na mapě představují dostupné meteorologické stanice.

Když kurzor umístíte na tečku, zobrazí se název stanice.

Pak kliknutím zobrazíte stav a předpověď počasí.

Chcete-li změnit mapu, kliknutím na zelené tlačítko se znaménkem +mapu přiblížíte, kliknutím na zelené tlačítko se znaménkem – mapu oddálíte a kliknutím na zelené šipky přejdete na sousední mapy.


METAR-TAF: